Barro Duro, Brazil
Current Conditions -  °F | °C
As of 2:00 PM on Sunday 21 Dec 2014 (Local Time) from SBTE Reporting Station
Scattered Clouds Scattered Clouds  
Wind Chill: 37°   Ceiling: Unl
Heat Index: 38°   Visibility: 6mi
Dew Point: 17°   Wind: 6mph
Humidity: 30%   Direction: 150°SSE
Pressure: 29.77"   Gusts: NA
Location:  5.82°S, 42.51°W
Report Text: SBTE 211700Z 15005KT 9999 SCT030 37/17 Q1008
Loading
Personal Weather Stations






























Interactive Weather Map New forecast layout! Learn more

10-Day Weather Forecast

Advertisements
Track Severe Weather on mobile